createdAt,value
2023-05-14T00:01:46.574Z,9.17
2023-05-14T00:04:14.587Z,9.09
2023-05-14T00:06:42.559Z,9.03
2023-05-14T00:09:10.515Z,9.11
2023-05-14T00:11:38.721Z,9.16
2023-05-14T00:14:06.695Z,9.09
2023-05-14T00:16:36.176Z,8.96
2023-05-14T00:19:04.236Z,8.99
2023-05-14T00:21:32.815Z,8.88
2023-05-14T00:24:00.809Z,8.98
2023-05-14T00:26:28.796Z,8.98
2023-05-14T00:28:56.697Z,8.90
2023-05-14T00:31:24.740Z,8.92
2023-05-14T00:33:54.074Z,9.00
2023-05-14T00:36:21.991Z,8.89
2023-05-14T00:38:50.298Z,8.89
2023-05-14T00:41:18.327Z,8.92
2023-05-14T00:43:46.283Z,8.86
2023-05-14T00:46:15.202Z,8.77
2023-05-14T00:48:43.398Z,8.91
2023-05-14T00:51:12.965Z,8.97
2023-05-14T00:53:41.155Z,8.96
2023-05-14T00:56:09.349Z,8.77
2023-05-14T00:58:37.277Z,8.47
2023-05-14T01:01:05.436Z,8.52
2023-05-14T01:03:33.774Z,8.61
2023-05-14T01:06:08.958Z,8.74
2023-05-14T01:08:47.866Z,8.80
2023-05-14T01:11:21.488Z,8.81
2023-05-14T01:13:57.032Z,8.62
2023-05-14T01:16:29.119Z,8.53
2023-05-14T01:18:58.733Z,8.49
2023-05-14T01:21:35.967Z,8.47
2023-05-14T01:24:03.999Z,8.29
2023-05-14T01:26:32.579Z,8.23
2023-05-14T01:29:05.233Z,8.30
2023-05-14T01:31:37.330Z,8.41
2023-05-14T01:34:07.076Z,8.38
2023-05-14T01:36:37.172Z,8.37
2023-05-14T01:39:05.492Z,8.35
2023-05-14T01:41:34.629Z,8.35
2023-05-14T01:44:02.625Z,8.44
2023-05-14T01:46:32.893Z,8.56
2023-05-14T01:49:01.249Z,8.58
2023-05-14T01:51:29.210Z,8.44
2023-05-14T01:53:58.617Z,8.02
2023-05-14T01:56:27.150Z,7.86
2023-05-14T01:58:55.705Z,7.73
2023-05-14T02:01:23.895Z,8.06
2023-05-14T02:03:51.926Z,8.25
2023-05-14T02:06:19.907Z,8.40
2023-05-14T02:08:47.873Z,8.26
2023-05-14T02:11:17.155Z,7.86
2023-05-14T02:13:45.175Z,7.80
2023-05-14T02:16:13.213Z,7.78
2023-05-14T02:18:41.320Z,7.86
2023-05-14T02:21:09.309Z,7.73
2023-05-14T02:23:41.531Z,7.78
2023-05-14T02:26:10.891Z,7.92
2023-05-14T02:28:40.310Z,7.87
2023-05-14T02:31:08.313Z,7.74
2023-05-14T02:33:36.368Z,7.62
2023-05-14T02:36:04.570Z,7.47
2023-05-14T02:38:32.491Z,7.59
2023-05-14T02:41:00.412Z,7.69
2023-05-14T02:43:28.318Z,7.80
2023-05-14T02:45:57.633Z,7.90
2023-05-14T02:48:26.201Z,7.79
2023-05-14T02:50:54.166Z,7.85
2023-05-14T02:53:22.095Z,7.97
2023-05-14T02:55:50.047Z,8.04
2023-05-14T02:58:17.981Z,8.02
2023-05-14T03:00:46.168Z,7.97
2023-05-14T03:03:15.704Z,8.05
2023-05-14T03:05:44.070Z,8.07
2023-05-14T03:08:12.094Z,7.99
2023-05-14T03:10:40.030Z,7.94
2023-05-14T03:13:08.058Z,8.10
2023-05-14T03:15:36.146Z,8.06
2023-05-14T03:18:04.256Z,8.00
2023-05-14T03:20:33.607Z,8.05
2023-05-14T03:23:01.573Z,8.13
2023-05-14T03:25:29.513Z,8.25
2023-05-14T03:27:57.418Z,8.03
2023-05-14T03:30:25.676Z,8.36
2023-05-14T03:32:54.302Z,8.34
2023-05-14T03:35:22.266Z,8.37
2023-05-14T03:37:53.097Z,8.32
2023-05-14T03:40:21.756Z,8.37
2023-05-14T03:42:49.885Z,8.35
2023-05-14T03:45:17.855Z,8.27
2023-05-14T03:47:45.795Z,8.43
2023-05-14T03:50:13.961Z,8.31
2023-05-14T03:52:41.924Z,8.43
2023-05-14T03:55:11.662Z,8.50
2023-05-14T03:57:39.615Z,8.47
2023-05-14T04:00:08.864Z,8.25
2023-05-14T04:02:36.826Z,8.42
2023-05-14T04:05:05.494Z,8.38
2023-05-14T04:07:33.469Z,8.40
2023-05-14T04:10:04.216Z,8.51
2023-05-14T04:12:33.957Z,8.64
2023-05-14T04:15:02.215Z,8.46
2023-05-14T04:17:30.197Z,8.55
2023-05-14T04:19:58.191Z,8.64
2023-05-14T04:22:26.172Z,8.57
2023-05-14T04:24:54.062Z,8.63
2023-05-14T04:27:22.495Z,8.76
2023-05-14T04:29:52.011Z,8.81
2023-05-14T04:32:20.506Z,8.81
2023-05-14T04:34:48.506Z,8.77
2023-05-14T04:37:16.592Z,8.72
2023-05-14T04:39:44.670Z,8.71
2023-05-14T04:42:12.654Z,8.78
2023-05-14T04:44:40.541Z,8.73
2023-05-14T04:47:09.846Z,8.48
2023-05-14T04:49:37.815Z,8.74
2023-05-14T04:52:06.374Z,8.74
2023-05-14T04:54:34.417Z,8.89
2023-05-14T04:57:03.364Z,8.94
2023-05-14T04:59:31.491Z,8.99
2023-05-14T05:01:59.532Z,9.14
2023-05-14T05:04:29.129Z,9.05
2023-05-14T05:06:57.009Z,9.11
2023-05-14T05:09:25.003Z,9.25
2023-05-14T05:11:52.927Z,9.26
2023-05-14T05:14:20.872Z,9.34
2023-05-14T05:16:48.795Z,9.39
2023-05-14T05:19:16.827Z,9.42
2023-05-14T05:21:46.352Z,9.39
2023-05-14T05:24:14.552Z,9.36
2023-05-14T05:26:42.480Z,9.39
2023-05-14T05:29:10.450Z,9.52
2023-05-14T05:31:38.431Z,9.44
2023-05-14T05:34:06.580Z,9.51
2023-05-14T05:36:34.535Z,9.50
2023-05-14T05:39:03.891Z,9.58
2023-05-14T05:41:31.818Z,9.62
2023-05-14T05:43:59.727Z,9.64
2023-05-14T05:46:27.739Z,9.78
2023-05-14T05:48:55.800Z,9.72
2023-05-14T05:51:23.770Z,9.65
2023-05-14T05:53:51.795Z,9.71
2023-05-14T05:56:21.268Z,9.86
2023-05-14T05:58:49.369Z,10.06
2023-05-14T06:01:17.323Z,10.12
2023-05-14T06:03:47.660Z,10.18
2023-05-14T06:06:16.721Z,10.34
2023-05-14T06:08:44.655Z,10.40
2023-05-14T06:11:12.780Z,10.40
2023-05-14T06:13:42.140Z,10.41
2023-05-14T06:16:11.143Z,10.51
2023-05-14T06:18:39.136Z,10.46
2023-05-14T06:21:07.213Z,10.66
2023-05-14T06:23:35.173Z,10.63
2023-05-14T06:26:03.160Z,10.62
2023-05-14T06:28:31.134Z,10.65
2023-05-14T06:31:00.548Z,10.59
2023-05-14T06:33:31.348Z,10.76
2023-05-14T06:35:59.797Z,10.79
2023-05-14T06:38:27.763Z,10.92
2023-05-14T06:40:55.716Z,11.06
2023-05-14T06:43:23.690Z,11.09
2023-05-14T06:45:51.900Z,11.05
2023-05-14T06:48:21.684Z,11.16
2023-05-14T06:50:50.740Z,11.17
2023-05-14T06:53:18.718Z,11.31
2023-05-14T06:55:48.702Z,11.15
2023-05-14T06:58:16.706Z,11.33
2023-05-14T07:00:44.647Z,11.39
2023-05-14T07:03:12.606Z,11.71
2023-05-14T07:05:42.216Z,11.80
2023-05-14T07:08:10.151Z,11.81
2023-05-14T07:10:39.154Z,12.21
2023-05-14T07:13:07.249Z,12.53
2023-05-14T07:15:35.293Z,12.36
2023-05-14T07:18:03.247Z,12.42
2023-05-14T07:20:33.938Z,12.41
2023-05-14T07:23:03.600Z,12.48
2023-05-14T07:25:32.819Z,12.68
2023-05-14T07:28:00.806Z,12.53
2023-05-14T07:30:28.787Z,12.52
2023-05-14T07:32:56.852Z,12.38
2023-05-14T07:35:24.875Z,12.34
2023-05-14T07:37:52.879Z,12.37
2023-05-14T07:40:22.507Z,12.69
2023-05-14T07:42:50.758Z,12.35
2023-05-14T07:45:18.769Z,12.92
2023-05-14T07:47:46.887Z,12.73
2023-05-14T07:50:15.447Z,13.07
2023-05-14T07:52:43.508Z,13.07
2023-05-14T07:55:12.058Z,12.84
2023-05-14T07:57:41.560Z,13.27
2023-05-14T08:00:10.299Z,13.05
2023-05-14T08:02:38.852Z,12.87
2023-05-14T08:05:07.700Z,13.38
2023-05-14T08:07:35.788Z,13.66
2023-05-14T08:10:03.968Z,13.94
2023-05-14T08:12:31.991Z,13.93
2023-05-14T08:15:01.398Z,14.12
2023-05-14T08:17:29.364Z,14.41
2023-05-14T08:19:57.511Z,14.06
2023-05-14T08:22:25.504Z,14.28
2023-05-14T08:24:53.483Z,14.43
2023-05-14T08:27:21.608Z,13.98
2023-05-14T08:29:49.713Z,13.84
2023-05-14T08:32:23.370Z,14.36
2023-05-14T08:34:52.573Z,15.05
2023-05-14T08:37:20.840Z,14.51
2023-05-14T08:39:48.816Z,14.82
2023-05-14T08:42:21.988Z,14.65
2023-05-14T08:44:54.279Z,14.57
2023-05-14T08:47:26.357Z,14.70
2023-05-14T08:49:59.846Z,14.90
2023-05-14T08:52:27.997Z,15.73
2023-05-14T08:54:57.589Z,15.22
2023-05-14T08:57:27.068Z,14.78
2023-05-14T08:59:55.395Z,15.37
2023-05-14T09:02:28.798Z,15.52
2023-05-14T09:04:59.169Z,14.80
2023-05-14T09:07:27.446Z,14.54
2023-05-14T09:09:56.426Z,15.47
2023-05-14T09:12:24.437Z,15.80
2023-05-14T09:14:52.818Z,15.79
2023-05-14T09:17:21.263Z,15.39
2023-05-14T09:19:53.217Z,15.32
2023-05-14T09:22:22.392Z,16.73
2023-05-14T09:25:04.720Z,16.92
2023-05-14T09:27:34.127Z,17.14
2023-05-14T09:30:11.421Z,17.04
2023-05-14T09:32:40.861Z,16.86
2023-05-14T09:35:20.064Z,16.41
2023-05-14T09:37:49.726Z,16.00
2023-05-14T09:40:19.550Z,16.49
2023-05-14T09:42:48.302Z,16.38
2023-05-14T09:45:16.786Z,17.06
2023-05-14T09:47:45.442Z,16.24
2023-05-14T09:50:13.678Z,16.80
2023-05-14T09:52:43.517Z,16.54
2023-05-14T09:55:11.638Z,16.35
2023-05-14T09:57:39.892Z,15.89
2023-05-14T10:00:10.324Z,16.19
2023-05-14T10:02:41.357Z,16.79
2023-05-14T10:05:10.447Z,16.82
2023-05-14T10:07:42.145Z,16.88
2023-05-14T10:10:17.403Z,16.73
2023-05-14T10:12:52.517Z,16.19
2023-05-14T10:15:25.165Z,16.48
2023-05-14T10:17:57.270Z,16.31
2023-05-14T10:20:26.716Z,16.84
2023-05-14T10:22:55.153Z,17.40
2023-05-14T10:25:24.763Z,16.73
2023-05-14T10:27:52.953Z,16.41
2023-05-14T10:30:24.082Z,17.23
2023-05-14T10:33:07.781Z,17.26
2023-05-14T10:35:56.339Z,16.92
2023-05-14T10:38:27.256Z,16.78
2023-05-14T10:41:01.183Z,17.13
2023-05-14T10:43:31.104Z,18.15
2023-05-14T10:45:59.980Z,18.09
2023-05-14T10:48:28.274Z,18.71
2023-05-14T10:50:57.384Z,18.00
2023-05-14T10:53:33.729Z,17.49
2023-05-14T10:56:07.186Z,17.81
2023-05-14T10:58:39.313Z,18.12
2023-05-14T11:01:09.288Z,18.08
2023-05-14T11:03:43.589Z,17.93
2023-05-14T11:06:14.108Z,17.81
2023-05-14T11:08:43.369Z,17.75
2023-05-14T11:11:14.109Z,17.58
2023-05-14T11:13:42.843Z,17.98
2023-05-14T11:16:22.569Z,17.79
2023-05-14T11:18:56.076Z,17.95
2023-05-14T11:21:25.644Z,17.73
2023-05-14T11:23:55.742Z,18.00
2023-05-14T11:26:26.047Z,17.85
2023-05-14T11:28:54.056Z,18.04
2023-05-14T11:31:24.281Z,17.75
2023-05-14T11:33:53.643Z,17.84
2023-05-14T11:36:21.941Z,18.14
2023-05-14T11:38:52.989Z,18.02
2023-05-14T11:41:23.218Z,18.00
2023-05-14T11:43:52.837Z,17.96
2023-05-14T11:46:22.477Z,18.13
2023-05-14T11:48:50.527Z,18.35
2023-05-14T11:51:18.541Z,19.27
2023-05-14T11:53:46.768Z,19.28
2023-05-14T11:56:14.737Z,20.38
2023-05-14T11:58:42.800Z,19.68
2023-05-14T12:01:14.840Z,19.00
2023-05-14T12:03:43.143Z,18.67
2023-05-14T12:06:11.178Z,18.81
2023-05-14T12:08:39.169Z,18.86
2023-05-14T12:11:07.755Z,18.90
2023-05-14T12:13:37.574Z,19.09
2023-05-14T12:16:06.123Z,18.76
2023-05-14T12:18:35.692Z,18.69
2023-05-14T12:21:04.525Z,18.47
2023-05-14T12:23:33.909Z,18.21
2023-05-14T12:26:06.900Z,18.34
2023-05-14T12:28:38.018Z,18.05
2023-05-14T12:31:07.049Z,17.79
2023-05-14T12:33:36.448Z,17.70
2023-05-14T12:36:20.504Z,17.45
2023-05-14T12:38:50.088Z,17.27
2023-05-14T12:41:18.547Z,17.32
2023-05-14T12:43:56.260Z,17.55
2023-05-14T12:46:27.124Z,17.73
2023-05-14T12:48:56.919Z,17.43
2023-05-14T12:51:26.593Z,17.32
2023-05-14T12:53:55.062Z,17.48
2023-05-14T12:56:29.285Z,17.58
2023-05-14T12:58:57.524Z,17.61
2023-05-14T13:01:25.534Z,17.48
2023-05-14T13:03:53.588Z,17.64
2023-05-14T13:06:23.073Z,17.72
2023-05-14T13:08:51.021Z,17.72
2023-05-14T13:11:18.992Z,17.86
2023-05-14T13:13:46.951Z,17.76
2023-05-14T13:16:16.981Z,17.95
2023-05-14T13:18:45.148Z,17.74
2023-05-14T13:21:13.152Z,18.04
2023-05-14T13:23:42.535Z,17.80
2023-05-14T13:26:10.703Z,17.88
2023-05-14T13:28:39.104Z,17.81
2023-05-14T13:31:09.608Z,18.05
2023-05-14T13:33:39.493Z,17.59
2023-05-14T13:36:08.274Z,17.90
2023-05-14T13:38:36.465Z,17.82
2023-05-14T13:41:06.149Z,17.87
2023-05-14T13:43:35.826Z,17.56
2023-05-14T13:46:05.116Z,17.60
2023-05-14T13:48:33.370Z,17.41
2023-05-14T13:51:01.494Z,17.11
2023-05-14T13:53:29.532Z,17.22
2023-05-14T13:55:59.375Z,16.84
2023-05-14T13:58:30.124Z,16.98
2023-05-14T14:00:58.058Z,17.08
2023-05-14T14:03:26.118Z,17.10
2023-05-14T14:05:54.068Z,17.13
2023-05-14T14:08:23.971Z,17.28
2023-05-14T14:10:54.573Z,17.16
2023-05-14T14:16:52.340Z,17.01
2023-05-14T14:19:20.522Z,16.87
2023-05-14T14:24:16.732Z,16.81
2023-05-14T14:26:45.875Z,16.75
2023-05-14T14:29:13.830Z,16.54
2023-05-14T14:31:41.838Z,16.60
2023-05-14T14:34:11.216Z,16.44
2023-05-14T14:36:39.165Z,17.05
2023-05-14T14:39:07.158Z,18.03
2023-05-14T14:41:35.110Z,18.30
2023-05-14T14:44:03.253Z,18.73
2023-05-14T14:46:31.313Z,19.00
2023-05-14T14:48:59.307Z,19.39
2023-05-14T14:51:30.340Z,18.76
2023-05-14T14:53:58.385Z,19.19
2023-05-14T14:56:28.422Z,19.44
2023-05-14T14:58:56.389Z,19.23
2023-05-14T15:01:24.498Z,19.37
2023-05-14T15:03:52.730Z,19.46
2023-05-14T15:06:20.713Z,19.27
2023-05-14T15:08:50.074Z,19.00
2023-05-14T15:11:18.138Z,19.38
2023-05-14T15:13:46.258Z,18.88
2023-05-14T15:16:14.260Z,18.82
2023-05-14T15:18:42.297Z,18.99
2023-05-14T15:21:10.325Z,18.86
2023-05-14T15:23:38.276Z,19.22
2023-05-14T15:26:07.690Z,18.96
2023-05-14T15:28:35.651Z,18.53
2023-05-14T15:31:04.202Z,18.26
2023-05-14T15:33:34.012Z,17.81
2023-05-14T15:36:02.196Z,17.73
2023-05-14T15:38:30.169Z,17.34
2023-05-14T15:40:58.392Z,17.56
2023-05-14T15:43:27.884Z,17.58
2023-05-14T15:45:56.057Z,17.61
2023-05-14T15:48:24.016Z,17.59
2023-05-14T15:50:52.767Z,17.76
2023-05-14T15:53:20.940Z,17.93
2023-05-14T15:55:49.842Z,18.22
2023-05-14T15:58:17.818Z,18.07
2023-05-14T16:00:47.170Z,18.11
2023-05-14T16:03:15.178Z,17.81
2023-05-14T16:05:44.861Z,18.05
2023-05-14T16:08:14.099Z,17.91
2023-05-14T16:10:42.048Z,17.97
2023-05-14T16:13:10.030Z,17.76
2023-05-14T16:15:37.991Z,17.68
2023-05-14T16:18:07.723Z,17.57
2023-05-14T16:20:35.726Z,17.50
2023-05-14T16:23:04.021Z,17.33
2023-05-14T16:25:32.409Z,17.37
2023-05-14T16:28:01.236Z,17.04
2023-05-14T16:30:29.224Z,16.99
2023-05-14T16:32:57.232Z,16.85
2023-05-14T16:35:26.593Z,16.78
2023-05-14T16:37:54.560Z,16.74
2023-05-14T16:40:23.349Z,16.64
2023-05-14T16:42:51.910Z,16.50
2023-05-14T16:45:19.913Z,16.49
2023-05-14T16:47:47.902Z,16.14
2023-05-14T16:50:16.065Z,16.03
2023-05-14T16:52:45.465Z,16.00
2023-05-14T16:55:13.409Z,16.12
2023-05-14T16:57:41.472Z,16.53
2023-05-14T17:00:10.796Z,16.79
2023-05-14T17:02:39.105Z,16.88
2023-05-14T17:05:08.347Z,16.33
2023-05-14T17:07:37.915Z,16.28
2023-05-14T17:10:08.587Z,16.12
2023-05-14T17:12:36.499Z,16.02
2023-05-14T17:15:05.679Z,16.17
2023-05-14T17:17:34.064Z,16.03
2023-05-14T17:20:02.141Z,16.16
2023-05-14T17:22:30.120Z,16.14
2023-05-14T17:24:58.105Z,16.03
2023-05-14T17:27:29.291Z,16.09
2023-05-14T17:29:57.290Z,16.29
2023-05-14T17:32:25.602Z,16.13
2023-05-14T17:34:53.617Z,16.18
2023-05-14T17:37:21.719Z,16.22
2023-05-14T17:39:49.680Z,16.17
2023-05-14T17:42:18.025Z,16.03
2023-05-14T17:44:47.374Z,15.87
2023-05-14T17:47:15.388Z,15.88
2023-05-14T17:49:43.683Z,15.93
2023-05-14T17:52:11.687Z,15.66
2023-05-14T17:54:39.651Z,15.39
2023-05-14T17:57:07.841Z,15.52
2023-05-14T17:59:35.867Z,15.60
2023-05-14T18:02:05.825Z,15.55
2023-05-14T18:04:33.773Z,15.47
2023-05-14T18:07:03.228Z,15.35
2023-05-14T18:09:31.190Z,15.15
2023-05-14T18:11:59.113Z,15.03
2023-05-14T18:14:27.144Z,15.01
2023-05-14T18:16:56.001Z,14.97
2023-05-14T18:19:25.398Z,14.76
2023-05-14T18:21:55.605Z,14.63
2023-05-14T18:24:23.680Z,14.58
2023-05-14T18:26:51.726Z,14.44
2023-05-14T18:29:19.874Z,14.40
2023-05-14T18:31:47.817Z,14.42
2023-05-14T18:34:15.836Z,14.52
2023-05-14T18:36:45.192Z,14.50
2023-05-14T18:39:13.202Z,14.73
2023-05-14T18:41:41.336Z,14.64
2023-05-14T18:44:09.317Z,14.65
2023-05-14T18:46:37.384Z,14.50
2023-05-14T18:49:05.331Z,14.43
2023-05-14T18:51:33.304Z,14.14
2023-05-14T18:54:02.626Z,14.10
2023-05-14T18:56:30.671Z,14.07
2023-05-14T18:58:58.591Z,13.67
2023-05-14T19:01:26.613Z,13.85
2023-05-14T19:03:55.987Z,13.75
2023-05-14T19:06:24.369Z,13.73
2023-05-14T19:08:52.359Z,13.67
2023-05-14T19:11:23.454Z,13.56
2023-05-14T19:13:51.712Z,13.70
2023-05-14T19:16:19.785Z,13.60
2023-05-14T19:18:47.854Z,13.67
2023-05-14T19:21:16.101Z,13.71
2023-05-14T19:23:44.270Z,13.77
2023-05-14T19:26:12.996Z,13.81
2023-05-14T19:28:42.394Z,13.86
2023-05-14T19:31:11.118Z,13.82
2023-05-14T19:33:39.157Z,13.67
2023-05-14T19:36:07.483Z,13.83
2023-05-14T19:38:35.786Z,13.78
2023-05-14T19:41:03.685Z,13.67
2023-05-14T19:43:31.640Z,13.62
2023-05-14T19:46:01.500Z,13.49
2023-05-14T19:48:29.739Z,13.37
2023-05-14T19:50:57.661Z,13.51
2023-05-14T19:53:29.690Z,13.54
2023-05-14T19:55:58.016Z,13.37
2023-05-14T19:58:26.696Z,13.43
2023-05-14T20:00:57.428Z,13.36
2023-05-14T20:03:27.222Z,13.17
2023-05-14T20:05:56.370Z,13.17
2023-05-14T20:08:25.020Z,13.22
2023-05-14T20:10:53.020Z,13.18
2023-05-14T20:13:23.042Z,13.27
2023-05-14T20:15:51.860Z,13.35
2023-05-14T20:18:19.808Z,13.25
2023-05-14T20:20:49.201Z,13.05
2023-05-14T20:23:17.225Z,12.91
2023-05-14T20:25:45.463Z,12.82
2023-05-14T20:28:13.406Z,12.78
2023-05-14T20:30:41.441Z,12.72
2023-05-14T20:33:09.673Z,12.71
2023-05-14T20:35:37.674Z,12.77
2023-05-14T20:38:07.068Z,12.74
2023-05-14T20:40:35.044Z,12.55
2023-05-14T20:43:03.000Z,12.72
2023-05-14T20:45:30.976Z,12.72
2023-05-14T20:47:58.959Z,12.73
2023-05-14T20:50:27.841Z,12.85
2023-05-14T20:52:56.799Z,12.83
2023-05-14T20:55:26.514Z,12.69
2023-05-14T20:58:55.128Z,12.51
2023-05-14T21:01:23.200Z,12.57
2023-05-14T21:03:51.732Z,12.43
2023-05-14T21:06:19.855Z,12.42
2023-05-14T21:08:47.776Z,12.03
2023-05-14T21:11:17.130Z,12.04
2023-05-14T21:13:45.198Z,12.16
2023-05-14T21:16:13.241Z,12.22
2023-05-14T21:18:41.251Z,12.33
2023-05-14T21:21:09.302Z,12.26
2023-05-14T21:23:37.245Z,12.08
2023-05-14T21:26:05.480Z,11.84
2023-05-14T21:28:34.844Z,11.74
2023-05-14T21:31:02.832Z,11.59
2023-05-14T21:33:30.826Z,11.70
2023-05-14T21:35:58.834Z,11.70
2023-05-14T21:38:26.965Z,11.74
2023-05-14T21:40:54.918Z,11.70
2023-05-14T21:43:22.880Z,11.68
2023-05-14T21:45:52.237Z,11.71
2023-05-14T21:48:21.443Z,11.60
2023-05-14T21:50:49.477Z,11.43
2023-05-14T21:53:17.423Z,11.65
2023-05-14T21:55:45.413Z,11.54
2023-05-14T21:58:13.476Z,11.53
2023-05-14T22:00:41.413Z,11.43
2023-05-14T22:03:10.977Z,11.40
2023-05-14T22:05:38.957Z,11.25
2023-05-14T22:08:07.372Z,11.08
2023-05-14T22:10:35.934Z,11.22
2023-05-14T22:13:03.937Z,11.28
2023-05-14T22:15:31.968Z,11.31
2023-05-14T22:17:59.933Z,11.59
2023-05-14T22:20:29.282Z,11.54
2023-05-14T22:22:57.216Z,11.48
2023-05-14T22:25:25.716Z,11.46
2023-05-14T22:27:53.988Z,11.12
2023-05-14T22:30:22.308Z,11.31
2023-05-14T22:32:50.260Z,11.49
2023-05-14T22:35:18.640Z,11.36
2023-05-14T22:37:48.001Z,11.23
2023-05-14T22:40:16.208Z,11.17
2023-05-14T22:42:44.156Z,11.11
2023-05-14T22:45:12.518Z,11.07
2023-05-14T22:47:40.466Z,10.98
2023-05-14T22:50:11.677Z,11.13
2023-05-14T22:52:40.205Z,11.21
2023-05-14T22:55:10.254Z,11.27
2023-05-14T22:57:38.281Z,11.34
2023-05-14T23:00:08.886Z,11.24
2023-05-14T23:02:36.867Z,11.26
2023-05-14T23:05:05.252Z,11.17
2023-05-14T23:07:33.300Z,11.28
2023-05-14T23:10:01.340Z,11.25
2023-05-14T23:12:30.682Z,11.35
2023-05-14T23:14:59.264Z,11.42
2023-05-14T23:17:27.660Z,11.48
2023-05-14T23:19:55.787Z,11.39
2023-05-14T23:22:23.727Z,11.36
2023-05-14T23:24:51.701Z,11.38
2023-05-14T23:27:19.684Z,11.33
2023-05-14T23:29:49.018Z,11.43
2023-05-14T23:32:17.031Z,11.44
2023-05-14T23:34:45.049Z,11.45
2023-05-14T23:37:13.658Z,11.48
2023-05-14T23:39:41.821Z,11.53
2023-05-14T23:42:09.720Z,11.57
2023-05-14T23:44:37.693Z,11.41
2023-05-14T23:47:08.816Z,11.49
2023-05-14T23:49:37.050Z,11.57
2023-05-14T23:52:05.410Z,11.62
2023-05-14T23:54:33.338Z,11.60
2023-05-14T23:57:01.450Z,11.53
2023-05-14T23:59:29.406Z,11.50
